Academy, Texas
Current Conditions -  °F | °C
As of 3:15 AM on Friday 19 Dec 2014 (Local Time) from KTPL Reporting Station
Overcast Overcast  
Wind Chill: 40°   Ceiling: 500
Heat Index: 46°   Visibility: 5mi
Dew Point: 43°   Wind: 14mph
Humidity: 87%   Direction: 330°NNW
Pressure: 30.09"   Gusts: 20mph
Location:  30.9809°N, 97.3415°W
Report Text: KTPL 190915Z AUTO 33012G17KT 5SM OVC005 08/06 A3009 RMK AO1
Loading
Personal Weather Stations






























Interactive Weather Map New forecast layout! Learn more

10-Day Weather Forecast

Advertisements
Track Severe Weather on mobile